Time;durP1;ratioP1;P1;durP2;ratioP2;P2;SDS_P1;SDS_P2;PMS_P1;PMS_P2;Temp;Humidity;BMP_temperature;BMP_pressure;BME280_temperature;BME280_humidity;BME280_pressure;Samples;Min_cycle;Max_cycle;Signal;HPM_P1;HPM_P2
2021/01/13 00:00:09;;;;;;;10.40;5.50;;;6.20;99.90;;;6.65;56.64;101224.19;4907840;28;97541;-57
2021/01/13 00:02:35;;;;;;;9.10;5.63;;;6.20;99.90;;;6.64;57.41;101230.31;4899116;28;98043;-58
2021/01/13 00:05:01;;;;;;;12.27;6.07;;;6.10;99.90;;;6.63;57.27;101228.56;4907614;28;101840;-58
2021/01/13 00:07:26;;;;;;;13.97;6.57;;;6.20;99.90;;;6.64;57.57;101227.69;4880905;28;99716;-58
2021/01/13 00:09:52;;;;;;;12.43;5.93;;;6.20;99.90;;;6.60;57.80;101219.88;4908384;28;98091;-58
2021/01/13 00:12:18;;;;;;;11.37;5.77;;;6.20;99.90;;;6.57;57.65;101215.53;4900221;28;99301;-57
2021/01/13 00:14:44;;;;;;;14.50;7.10;;;6.10;99.90;;;6.53;57.48;101221.72;4904553;28;97100;-57
2021/01/13 00:17:10;;;;;;;15.17;8.47;;;6.10;99.90;;;6.64;58.63;101211.97;4909580;28;97179;-57
2021/01/13 00:19:37;;;;;;;13.47;8.63;;;6.20;99.90;;;6.74;58.70;101216.22;4879912;28;100626;-58
2021/01/13 00:22:04;;;;;;;17.80;9.27;;;6.30;99.90;;;6.94;57.52;101223.84;4906923;28;96929;-58
2021/01/13 00:24:29;;;;;;;15.77;8.10;;;6.50;99.90;;;7.02;57.10;101221.16;4893290;28;100598;-57
2021/01/13 00:27:01;;;;;;;13.03;6.93;;;6.60;99.90;;;7.16;58.28;101233.22;4892455;28;99024;-57
2021/01/13 00:29:28;;;;;;;15.50;7.60;;;6.70;99.90;;;7.18;56.71;101238.44;4897713;28;97567;-58
2021/01/13 00:31:59;;;;;;;11.93;6.77;;;6.80;99.90;;;7.23;56.98;101244.50;4924795;28;96927;-56
2021/01/13 00:34:29;;;;;;;14.97;7.23;;;6.80;99.90;;;7.22;56.04;101240.13;4896181;28;98074;-58
2021/01/13 00:36:55;;;;;;;14.10;7.20;;;6.80;99.90;;;7.16;56.34;101241.09;4922328;28;98894;-58
2021/01/13 00:39:21;;;;;;;12.87;7.17;;;6.80;99.90;;;7.15;56.73;101241.13;4896053;28;98007;-56
2021/01/13 00:41:47;;;;;;;13.43;6.83;;;6.80;99.90;;;7.07;57.30;101235.06;4886008;28;97875;-58
2021/01/13 00:44:13;;;;;;;14.90;6.37;;;6.70;99.90;;;7.12;57.05;101238.53;4897398;28;100622;-58
2021/01/13 00:46:47;;;;;;;11.90;6.77;;;6.70;99.90;;;7.29;58.26;101244.44;4905624;28;100872;-58
2021/01/13 00:49:13;;;;;;;15.03;6.63;;;6.80;99.90;;;7.46;57.42;101241.59;4898958;28;98496;-57
2021/01/13 00:51:43;;;;;;;12.37;7.17;;;7.00;99.90;;;7.40;56.37;101236.44;4901629;28;99653;-57
2021/01/13 00:54:11;;;;;;;14.33;7.37;;;7.00;99.90;;;7.52;56.24;101243.25;4911550;28;99648;-55
2021/01/13 00:56:47;;;;;;;13.40;7.43;;;7.10;99.90;;;7.47;56.28;101231.06;4887996;28;101399;-57
2021/01/13 00:59:14;;;;;;;21.03;11.97;;;7.10;99.90;;;7.47;55.89;101236.31;4904582;28;98357;-57
2021/01/13 01:01:43;;;;;;;16.27;11.33;;;7.10;99.90;;;7.47;56.33;101236.31;4914802;28;98376;-57
2021/01/13 01:04:11;;;;;;;15.80;8.33;;;7.10;99.90;;;7.46;56.17;101236.31;5073416;22;100659;-57
2021/01/13 01:06:37;;;;;;;20.17;12.73;;;7.10;99.90;;;7.34;56.00;101234.72;4921628;28;102387;-58
2021/01/13 01:09:05;;;;;;;16.23;12.13;;;6.90;99.90;;;7.35;56.69;101236.47;4921399;28;98675;-58
2021/01/13 01:11:38;;;;;;;14.60;8.77;;;6.90;99.90;;;7.34;56.47;101239.97;4930356;28;97985;-58
2021/01/13 01:14:09;;;;;;;16.70;9.40;;;6.90;99.90;;;7.57;58.25;101237.06;4915028;28;98940;-58
2021/01/13 01:16:38;;;;;;;14.90;9.50;;;7.00;99.90;;;7.73;56.07;101235.06;4917564;28;99289;-58
2021/01/13 01:19:09;;;;;;;10.97;7.83;;;7.10;99.90;;;7.62;54.88;101229.09;4920080;28;98590;-57
2021/01/13 01:21:43;;;;;;;12.00;7.40;;;7.10;99.90;;;7.52;55.14;101236.22;4903851;28;99535;-57
2021/01/13 01:24:10;;;;;;;14.87;7.97;;;7.00;99.90;;;7.42;55.77;101238.13;4927565;28;101878;-58
2021/01/13 01:26:48;;;;;;;15.43;7.87;;;7.00;99.90;;;7.43;56.04;101237.25;4933231;28;97826;-57
2021/01/13 01:29:15;;;;;;;15.30;7.57;;;7.00;99.90;;;7.34;56.09;101234.72;4929742;28;99066;-58
2021/01/13 01:31:41;;;;;;;16.20;7.23;;;6.90;99.90;;;7.35;56.38;101239.09;4901551;28;99292;-56
2021/01/13 01:34:07;;;;;;;13.30;7.57;;;6.90;99.90;;;7.32;56.43;101252.25;4915987;28;118818;-57
2021/01/13 01:36:33;;;;;;;11.93;7.47;;;6.90;99.90;;;7.32;56.13;101251.41;4920776;28;99373;-58
2021/01/13 01:38:59;;;;;;;11.07;7.03;;;6.90;99.90;;;7.23;56.65;101252.34;4929811;28;98242;-58
2021/01/13 01:41:25;;;;;;;16.20;7.67;;;6.90;99.90;;;7.18;56.71;101258.56;4924758;28;97875;-56
2021/01/13 01:43:51;;;;;;;13.63;7.17;;;6.80;99.90;;;7.18;57.01;101264.69;4931766;28;99585;-58
2021/01/13 01:46:18;;;;;;;10.40;6.83;;;6.80;99.90;;;7.15;56.64;101254.22;4908536;28;99075;-58
2021/01/13 01:48:59;;;;;;;15.57;7.47;;;6.80;99.90;;;7.14;57.26;101263.00;4928123;28;97568;-57
2021/01/13 01:51:34;;;;;;;13.70;7.27;;;6.70;99.90;;;7.11;57.26;101261.28;4934657;28;97467;-57
2021/01/13 01:54:13;;;;;;;14.77;7.40;;;6.70;99.90;;;7.10;57.17;101266.53;4913304;28;99136;-57
2021/01/13 01:56:41;;;;;;;11.90;7.47;;;6.70;99.90;;;7.03;56.46;101270.13;4920373;28;98857;-57
2021/01/13 01:59:16;;;;;;;13.27;7.40;;;6.70;99.90;;;7.03;56.56;101270.13;4928726;28;98144;-57
2021/01/13 02:01:44;;;;;;;13.13;6.60;;;6.70;99.90;;;6.96;56.49;101273.69;4918110;28;98408;-57
2021/01/13 02:04:13;;;;;;;11.77;7.13;;;6.50;99.90;;;6.86;56.94;101267.69;4932521;28;100748;-56
2021/01/13 02:07:28;;;;;;;15.90;7.03;;;6.40;99.90;;;6.83;57.68;101271.22;4922249;28;98123;-57
2021/01/13 02:09:55;;;;;;;14.20;6.67;;;6.30;99.90;;;6.75;57.63;101270.41;4893734;28;97091;-58
2021/01/13 02:12:28;;;;;;;11.27;7.00;;;6.30;99.90;;;6.70;57.41;101266.09;4912119;28;97187;-58
2021/01/13 02:14:55;;;;;;;14.33;6.80;;;6.20;99.90;;;6.70;58.05;101269.59;4945135;28;100603;-58
2021/01/13 02:17:35;;;;;;;13.27;6.53;;;6.20;99.90;;;6.67;57.66;101269.63;4926522;28;99399;-58
2021/01/13 02:20:08;;;;;;;12.40;7.10;;;6.20;99.90;;;6.68;57.96;101273.13;4914396;28;98255;-58
2021/01/13 02:23:03;;;;;;;12.60;7.30;;;6.20;99.90;;;6.75;58.10;101280.88;4904195;28;97680;-58
2021/01/13 02:26:06;;;;;;;19.37;8.10;;;6.30;99.90;;;6.87;57.60;101274.66;4909200;28;97723;-57
2021/01/13 02:28:44;;;;;;;18.03;7.80;;;6.40;99.90;;;6.92;57.59;101277.22;4934053;28;101635;-56
2021/01/13 02:31:27;;;;;;;13.90;8.20;;;6.50;99.90;;;7.10;57.34;101277.03;4932547;28;97731;-56
2021/01/13 02:34:02;;;;;;;15.97;8.63;;;6.70;99.90;;;7.35;57.63;101274.97;4902172;28;102159;-58
2021/01/13 02:36:34;;;;;;;17.00;8.37;;;6.80;99.90;;;7.77;58.71;101281.41;4944161;28;99388;-57
2021/01/13 02:39:04;;;;;;;16.63;9.33;;;7.10;99.90;;;7.77;55.87;101276.16;4941461;28;99108;-56
2021/01/13 02:41:43;;;;;;;14.93;8.77;;;7.20;99.90;;;7.81;55.86;101280.50;4925573;28;101088;-57
2021/01/13 02:44:10;;;;;;;18.97;8.23;;;7.30;99.90;;;7.66;55.24;101278.06;4940162;28;98388;-55
2021/01/13 02:46:59;;;;;;;14.23;8.60;;;7.20;99.90;;;7.64;55.43;101285.94;4923643;28;97182;-56
2021/01/13 02:49:27;;;;;;;14.67;8.00;;;7.20;99.90;;;7.49;55.55;101285.28;4916405;28;100267;-57
2021/01/13 02:52:19;;;;;;;17.40;8.70;;;7.10;99.90;;;7.41;55.82;101285.41;4952115;28;99132;-58
2021/01/13 02:54:54;;;;;;;12.50;8.50;;;7.00;99.90;;;7.39;56.06;101282.81;4943515;28;96949;-55
2021/01/13 02:57:27;;;;;;;19.60;10.07;;;6.90;99.90;;;7.33;56.04;101275.00;4960646;28;99978;-56
2021/01/13 02:59:56;;;;;;;16.27;9.80;;;6.90;99.90;;;7.33;57.36;101275.00;4926699;28;102681;-55
2021/01/13 03:02:36;;;;;;;14.03;8.43;;;6.90;99.90;;;7.33;55.93;101279.38;4957106;28;97359;-54
2021/01/13 03:05:06;;;;;;;16.17;9.10;;;6.90;99.90;;;7.40;56.47;101279.28;4929391;28;100156;-56
2021/01/13 03:07:37;;;;;;;17.60;8.63;;;7.00;99.90;;;7.33;55.83;101279.38;4956093;28;100263;-57
2021/01/13 03:10:25;;;;;;;12.37;8.53;;;6.90;99.90;;;7.29;56.33;101278.56;4934326;28;97231;-56
2021/01/13 03:12:59;;;;;;;16.13;8.50;;;6.90;99.90;;;7.31;56.50;101284.66;4971094;28;97475;-57
2021/01/13 03:15:27;;;;;;;18.60;9.50;;;6.90;99.90;;;7.26;55.82;101288.22;4933860;28;97034;-58
2021/01/13 03:18:24;;;;;;;20.87;10.40;;;6.90;99.90;;;7.37;57.09;101288.94;4952765;28;97088;-58
2021/01/13 03:21:02;;;;;;;18.10;9.57;;;6.90;99.90;;;7.44;56.37;101283.59;4949461;28;106152;-58
2021/01/13 03:23:54;;;;;;;14.00;8.63;;;7.00;99.90;;;7.55;56.96;101290.47;4963794;28;97232;-58
2021/01/13 03:26:31;;;;;;;13.50;8.97;;;7.10;99.90;;;7.54;55.99;101284.38;4947381;28;97340;-57
2021/01/13 03:29:00;;;;;;;17.90;8.00;;;7.10;99.90;;;7.79;56.87;101290.13;4933803;28;101617;-57
2021/01/13 03:31:31;;;;;;;14.90;9.03;;;7.30;99.90;;;7.79;54.65;101281.38;4949498;28;100076;-58
2021/01/13 03:34:31;;;;;;;17.20;8.00;;;7.30;99.90;;;7.83;54.92;101289.22;4954666;28;97596;-53
2021/01/13 03:37:16;;;;;;;18.23;9.20;;;7.30;99.90;;;7.72;54.46;101286.72;4943803;28;97388;-56
2021/01/13 03:39:42;;;;;;;16.43;8.47;;;7.30;99.90;;;7.67;54.87;101285.06;4952364;28;97613;-59
2021/01/13 03:42:17;;;;;;;12.03;7.67;;;7.20;99.90;;;7.96;57.52;101288.16;4931389;28;98085;-57
2021/01/13 03:44:46;;;;;;;18.20;8.10;;;7.40;99.90;;;7.76;54.48;101295.44;4939085;28;97165;-57
2021/01/13 03:47:27;;;;;;;13.90;8.07;;;7.30;99.90;;;7.77;54.65;101286.66;4952252;28;96999;-57
2021/01/13 03:50:22;;;;;;;15.37;8.13;;;7.30;99.90;;;7.67;54.38;101285.06;4949967;28;104564;-55
2021/01/13 03:52:54;;;;;;;16.47;8.60;;;7.20;99.90;;;7.69;54.70;101285.91;4955740;28;104281;-57
2021/01/13 03:55:23;;;;;;;13.33;7.77;;;7.20;99.90;;;7.95;57.05;101290.78;4958303;28;96796;-58
2021/01/13 03:57:58;;;;;;;15.20;7.87;;;7.40;99.90;;;8.13;55.68;101300.16;4943389;28;98383;-55
2021/01/13 04:00:31;;;;;;;14.37;8.07;;;7.60;99.90;;;8.22;53.50;101303.50;4953372;28;98048;-62
2021/01/13 04:03:22;;;;;;;13.97;8.50;;;7.80;99.90;;;8.24;56.54;101308.72;4942667;28;99264;-58
2021/01/13 04:06:10;;;;;;;14.90;8.37;;;7.60;99.90;;;8.31;53.04;101292.84;4939015;28;96557;-57
2021/01/13 04:08:37;;;;;;;16.33;7.67;;;7.80;99.90;;;8.79;55.10;101297.31;4926147;28;98243;-58
2021/01/13 04:11:11;;;;;;;14.70;7.97;;;8.10;99.90;;;8.64;53.48;101299.31;4959610;28;97589;-58
2021/01/13 04:13:36;;;;;;;16.13;8.33;;;8.00;99.90;;;8.70;56.55;101295.72;4928788;28;102212;-57
2021/01/13 04:16:03;;;;;;;14.63;8.17;;;8.00;99.90;;;8.99;52.91;101284.66;4956988;28;98139;-56
2021/01/13 04:18:30;;;;;;;14.87;7.83;;;8.40;99.90;;;9.32;54.44;101282.25;4940286;28;97327;-57
2021/01/13 04:20:57;;;;;;;19.53;8.40;;;8.80;99.90;;;9.66;50.39;101272.72;4935272;28;97090;-57
2021/01/13 04:23:23;;;;;;;12.10;7.43;;;9.40;99.90;;;9.89;51.96;101279.25;4925455;28;96935;-58
2021/01/13 04:25:50;;;;;;;11.60;7.53;;;9.50;99.90;;;9.65;53.77;101265.72;4958216;28;97006;-58
2021/01/13 04:28:17;;;;;;;11.00;7.57;;;9.30;99.90;;;10.10;52.06;101262.94;4943927;28;97097;-58
2021/01/13 04:30:43;;;;;;;14.03;8.27;;;9.70;99.90;;;9.82;53.00;101263.59;4934033;28;101537;-56
2021/01/13 04:33:10;;;;;;;12.07;8.10;;;9.40;99.90;;;9.80;51.67;101269.78;4943502;28;97312;-58
2021/01/13 04:35:36;;;;;;;22.23;8.50;;;9.30;99.90;;;9.82;52.21;101268.84;4970146;28;97075;-57
2021/01/13 04:38:03;;;;;;;16.47;8.23;;;9.30;99.60;;;9.68;53.11;101281.47;4933579;28;100557;-57
2021/01/13 04:40:35;;;;;;;14.43;7.83;;;9.10;99.90;;;9.84;50.81;101282.88;4947593;28;96949;-56
2021/01/13 04:43:12;;;;;;;17.23;9.00;;;9.40;99.60;;;9.64;50.70;101269.28;4943772;28;97460;-56
2021/01/13 04:45:46;;;;;;;18.40;8.97;;;9.20;99.60;;;9.52;53.93;101270.41;4940157;28;98659;-57
2021/01/13 04:48:17;;;;;;;11.60;8.00;;;8.90;99.90;;;9.69;52.94;101277.97;4931041;28;97083;-58
2021/01/13 04:50:47;;;;;;;15.80;8.30;;;9.00;99.90;;;9.51;52.01;101270.44;4956284;28;100185;-56
2021/01/13 04:53:21;;;;;;;14.47;8.53;;;8.90;99.90;;;9.28;51.15;101275.34;4944646;28;101509;-58
2021/01/13 04:55:50;;;;;;;11.13;8.20;;;8.80;99.90;;;9.17;54.40;101267.66;4934547;28;98290;-58
2021/01/13 04:59:04;;;;;;;13.17;8.70;;;8.50;99.90;;;8.94;52.14;101281.25;4950589;28;96954;-58
2021/01/13 05:02:12;;;;;;;17.47;8.77;;;8.40;99.90;;;8.86;53.31;101283.16;4948385;28;103362;-57
2021/01/13 05:04:46;;;;;;;14.77;8.13;;;8.30;99.90;;;8.52;53.41;101288.13;4926462;28;99162;-56
2021/01/13 05:07:32;;;;;;;16.30;8.77;;;8.10;99.90;;;8.28;54.33;101299.91;4970263;28;97304;-57
2021/01/13 05:10:17;;;;;;;18.60;9.40;;;7.90;99.90;;;8.13;55.06;101284.41;4935951;28;100706;-57
2021/01/13 05:12:46;;;;;;;19.80;8.97;;;7.70;99.90;;;8.00;55.85;101292.47;4933612;28;99361;-56
2021/01/13 05:15:25;;;;;;;17.63;9.20;;;7.60;99.90;;;7.87;56.10;101285.66;4963534;28;96961;-58
2021/01/13 05:18:08;;;;;;;20.23;9.70;;;7.50;99.90;;;7.78;56.63;101283.13;4947737;28;97331;-58
2021/01/13 05:20:34;;;;;;;14.90;9.40;;;7.50;99.90;;;7.68;57.33;101284.19;4924912;28;97176;-57
2021/01/13 05:23:01;;;;;;;16.33;9.20;;;7.40;99.90;;;7.63;58.03;101278.97;4950485;28;97956;-55
2021/01/13 05:25:52;;;;;;;16.70;9.40;;;7.30;99.90;;;7.61;58.00;101272.00;4939538;28;100433;-58
2021/01/13 05:28:23;;;;;;;14.60;9.47;;;7.30;99.90;;;7.49;58.53;101265.16;4949848;28;97114;-57
2021/01/13 05:30:59;;;;;;;15.63;8.57;;;7.20;99.90;;;7.90;57.88;101267.19;4943066;28;97612;-57
2021/01/13 05:33:32;;;;;;;18.43;9.53;;;7.50;99.90;;;7.82;57.41;101269.09;4947429;28;99416;-60
2021/01/13 05:36:05;;;;;;;18.77;9.30;;;7.40;99.90;;;7.89;57.40;101262.84;4947829;28;100488;-58
2021/01/13 05:39:10;;;;;;;17.40;9.53;;;7.50;99.90;;;7.96;56.82;101261.88;4942605;28;96665;-57
2021/01/13 05:41:39;;;;;;;18.87;10.10;;;7.60;99.90;;;7.91;57.27;101262.81;4941906;28;97357;-58
2021/01/13 05:44:05;;;;;;;17.83;10.37;;;7.60;99.90;;;8.18;58.25;101261.53;4951857;28;99456;-56
2021/01/13 05:46:48;;;;;;;18.30;9.80;;;7.70;99.90;;;8.35;55.31;101264.78;4929868;28;98631;-57
2021/01/13 05:49:15;;;;;;;24.30;11.37;;;8.00;99.90;;;8.04;56.72;101262.59;4951224;28;97437;-55
2021/01/13 05:51:42;;;;;;;16.47;11.03;;;7.70;99.90;;;8.01;57.97;101260.03;4945177;28;99833;-58
2021/01/13 05:54:15;;;;;;;18.90;10.97;;;7.60;99.90;;;8.31;56.49;101239.41;4952143;28;99165;-57
2021/01/13 05:56:42;;;;;;;14.47;9.50;;;7.90;99.90;;;8.35;58.71;101243.75;4944691;28;103508;-55
2021/01/13 05:59:14;;;;;;;19.97;11.17;;;7.80;99.90;;;8.21;55.40;101240.44;4948677;28;98177;-58
2021/01/13 06:01:56;;;;;;;19.67;11.83;;;7.90;99.90;;;8.17;56.07;101244.03;4940761;28;97456;-55
2021/01/13 06:04:23;;;;;;;16.43;10.93;;;7.80;99.90;;;8.07;56.14;101244.16;4937987;28;97264;-58
2021/01/13 06:07:09;;;;;;;22.03;12.33;;;7.80;99.90;;;7.96;56.47;101246.13;4925421;28;103692;-57
2021/01/13 06:09:43;;;;;;;18.67;11.40;;;7.70;99.90;;;8.13;56.04;101247.59;4949229;28;97815;-58
2021/01/13 06:12:18;;;;;;;19.60;12.23;;;7.80;99.90;;;7.76;56.93;101246.41;4925644;28;97507;-58
2021/01/13 06:14:51;;;;;;;15.77;10.40;;;7.50;99.90;;;8.31;57.88;101242.03;4947124;28;99731;-55
2021/01/13 06:17:27;;;;;;;15.47;10.40;;;7.80;99.90;;;8.74;55.45;101251.81;4928407;28;99280;-57
2021/01/13 06:19:57;;;;;;;24.00;12.07;;;8.40;99.90;;;8.87;56.35;101248.06;4934720;28;98161;-56
2021/01/13 06:22:32;;;;;;;19.53;9.97;;;8.50;99.90;;;9.43;55.54;101239.00;4947136;28;99735;-58
2021/01/13 06:25:00;;;;;;;18.00;10.47;;;9.00;99.90;;;9.56;51.71;101244.03;4969808;28;102881;-59
2021/01/13 06:27:57;;;;;;;18.50;11.27;;;9.40;99.90;;;9.63;53.96;101250.88;4955065;28;96839;-62
2021/01/13 06:30:40;;;;;;;17.03;10.00;;;9.30;99.90;;;9.86;52.32;101247.72;4964322;28;96948;-57
2021/01/13 06:33:10;;;;;;;16.43;9.67;;;9.50;99.90;;;10.24;53.02;101247.69;4925973;28;97014;-59
2021/01/13 06:35:42;;;;;;;15.63;9.27;;;9.80;99.90;;;10.38;52.20;101242.91;4935284;28;96846;-58
2021/01/13 06:38:41;;;;;;;15.17;9.57;;;10.10;99.80;;;10.39;50.45;101243.78;4943210;28;99526;-55
2021/01/13 06:41:07;;;;;;;15.53;8.73;;;10.20;98.40;;;10.60;51.03;101239.75;4936767;28;96958;-57
2021/01/13 06:43:33;;;;;;;14.27;8.63;;;10.30;99.00;;;10.73;51.64;101249.06;4926774;28;97949;-58
2021/01/13 06:45:59;;;;;;;15.03;9.43;;;10.30;99.90;;;10.56;51.46;101246.00;4944261;28;129638;-57
2021/01/13 06:48:26;;;;;;;16.57;8.53;;;10.20;99.00;;;10.69;50.92;101248.25;4944754;28;108616;-62
2021/01/13 06:50:59;;;;;;;15.70;7.27;;;10.30;98.90;;;10.78;50.94;101252.44;4943362;28;97144;-57
2021/01/13 06:53:36;;;;;;;13.50;7.50;;;10.40;98.50;;;10.95;51.13;101242.28;4930154;28;102205;-63
2021/01/13 06:56:15;;;;;;;15.90;8.70;;;10.60;99.30;;;11.25;49.95;101243.19;4970954;28;98701;-57
2021/01/13 06:59:01;;;;;;;12.33;7.87;;;11.00;98.30;;;11.37;45.97;101247.25;4957195;28;102202;-58
2021/01/13 07:01:28;;;;;;;17.10;8.80;;;11.40;96.10;;;11.25;47.93;101239.69;4953337;28;96891;-57
2021/01/13 07:04:04;;;;;;;11.77;7.50;;;11.10;96.50;;;11.16;50.19;101242.59;4926541;28;98653;-58
2021/01/13 07:06:34;;;;;;;14.87;8.13;;;10.80;99.00;;;10.96;49.86;101253.69;4951920;28;100020;-58
2021/01/13 07:09:01;;;;;;;12.80;8.07;;;10.70;97.10;;;10.90;47.89;101251.25;4943118;28;97667;-55
2021/01/13 07:11:29;;;;;;;23.60;11.33;;;10.70;97.20;;;10.80;50.74;101247.97;4934765;28;97287;-56
2021/01/13 07:14:01;;;;;;;18.07;10.23;;;10.40;98.70;;;10.61;49.17;101249.38;4951540;28;100760;-57
2021/01/13 07:16:29;;;;;;;15.20;9.10;;;10.30;97.30;;;10.63;48.84;101250.22;4938387;28;101973;-56
2021/01/13 07:18:57;;;;;;;17.47;8.97;;;10.30;97.30;;;10.82;50.42;101250.56;4946959;28;98217;-60
2021/01/13 07:21:36;;;;;;;19.17;9.33;;;10.40;98.60;;;10.62;50.30;101251.97;4941221;28;97636;-57
2021/01/13 07:24:13;;;;;;;14.77;8.33;;;10.20;97.90;;;10.33;50.82;101247.47;4951394;28;96623;-57
2021/01/13 07:26:41;;;;;;;20.67;10.50;;;9.80;99.10;;;10.28;52.07;101246.72;4934869;28;97128;-55
2021/01/13 07:29:07;;;;;;;16.80;8.67;;;9.70;99.00;;;10.38;48.75;101255.25;4955730;28;99283;-56
2021/01/13 07:31:34;;;;;;;16.77;8.27;;;10.00;98.40;;;10.50;51.56;101260.22;4937731;28;98803;-57
2021/01/13 07:34:15;;;;;;;17.73;9.13;;;10.00;99.20;;;10.47;50.86;101252.38;4953466;28;102338;-57
2021/01/13 07:36:46;;;;;;;15.03;8.60;;;10.00;98.70;;;10.58;51.28;101250.34;4939821;28;97166;-58
2021/01/13 07:39:16;;;;;;;14.47;7.57;;;10.10;99.30;;;10.63;50.73;101258.13;4938440;28;97291;-56
2021/01/13 07:42:15;;;;;;;15.90;8.60;;;10.20;98.30;;;10.89;50.07;101255.66;4939393;28;96881;-58
2021/01/13 07:44:45;;;;;;;16.80;8.37;;;10.50;98.80;;;10.61;50.04;101259.94;4934531;28;99161;-57
2021/01/13 07:47:29;;;;;;;13.67;8.30;;;10.30;96.60;;;10.33;50.35;101255.38;4959619;28;97295;-59
2021/01/13 07:50:10;;;;;;;13.97;7.77;;;9.90;97.60;;;10.61;51.76;101260.81;4938094;28;104383;-58
2021/01/13 07:52:47;;;;;;;15.80;8.37;;;10.00;99.90;;;10.91;50.43;101258.25;4947673;28;99664;-58
2021/01/13 07:55:21;;;;;;;15.40;7.83;;;10.50;99.10;;;10.85;46.90;101269.84;4936246;28;97370;-58
2021/01/13 07:57:53;;;;;;;17.87;9.17;;;10.60;97.20;;;10.45;49.39;101264.75;4944496;28;99874;-57
2021/01/13 08:00:36;;;;;;;14.03;8.33;;;10.20;97.00;;;10.38;47.68;101269.28;4959572;28;96750;-58
2021/01/13 08:03:39;;;;;;;18.17;9.13;;;10.20;96.80;;;10.38;50.64;101269.28;4948161;28;97316;-55
2021/01/13 08:06:28;;;;;;;18.90;9.00;;;10.00;97.20;;;9.73;50.92;101269.06;4939867;28;98115;-58
2021/01/13 08:09:03;;;;;;;15.17;8.83;;;9.40;97.90;;;9.70;51.21;101263.88;4948271;28;102154;-55
2021/01/13 08:12:07;;;;;;;15.80;9.43;;;9.30;99.60;;;9.68;49.80;101270.94;4940706;28;96677;-57
2021/01/13 08:14:57;;;;;;;12.33;7.33;;;9.40;98.90;;;9.86;50.35;101274.06;4950575;28;97099;-57
2021/01/13 08:17:50;;;;;;;16.57;7.67;;;9.40;99.90;;;10.19;49.66;101270.63;4944744;28;97503;-55
2021/01/13 08:20:42;;;;;;;12.97;7.40;;;9.90;99.20;;;10.69;51.42;101274.66;4973079;28;103980;-56
2021/01/13 08:23:21;;;;;;;15.83;7.93;;;10.40;99.30;;;10.45;47.45;101275.31;4940536;28;102257;-58
2021/01/13 08:25:57;;;;;;;14.13;7.77;;;10.40;96.40;;;10.33;48.39;101276.47;4936094;28;97039;-57
2021/01/13 08:28:24;;;;;;;13.60;8.07;;;10.00;97.20;;;10.23;51.24;101269.69;4931664;28;98395;-58
2021/01/13 08:30:52;;;;;;;14.43;7.53;;;9.80;98.60;;;10.38;52.18;101278.97;4935608;28;98635;-58
2021/01/13 08:33:24;;;;;;;14.20;7.60;;;9.90;99.90;;;10.43;48.11;101277.13;4927414;28;98683;-57
2021/01/13 08:35:57;;;;;;;13.53;8.77;;;10.10;98.20;;;10.26;49.85;101274.88;4965165;28;97417;-56
2021/01/13 08:38:23;;;;;;;12.00;6.70;;;10.00;98.00;;;10.70;49.78;101275.50;4946140;28;97081;-58
2021/01/13 08:40:50;;;;;;;17.63;7.20;;;10.40;97.90;;;10.59;48.53;101272.31;4932376;28;100578;-57
2021/01/13 08:43:18;;;;;;;11.17;7.17;;;10.40;96.70;;;10.86;50.98;101271.59;4948039;28;97347;-58
2021/01/13 08:45:47;;;;;;;13.10;8.17;;;10.50;98.80;;;10.56;47.83;101282.91;4965781;28;101038;-55
2021/01/13 08:48:22;;;;;;;14.13;6.90;;;10.50;96.40;;;10.79;48.59;101280.56;4940314;28;96985;-57
2021/01/13 08:51:04;;;;;;;17.23;8.13;;;10.50;97.10;;;10.51;50.86;101275.13;4935558;28;99733;-56
2021/01/13 08:53:31;;;;;;;14.57;8.20;;;10.20;97.80;;;10.14;50.89;101276.03;4940540;28;98042;-57
2021/01/13 08:55:58;;;;;;;11.77;7.00;;;9.80;97.80;;;10.43;50.75;101267.44;4941446;28;97298;-57
2021/01/13 08:58:34;;;;;;;14.83;7.60;;;10.00;99.00;;;10.68;50.61;101274.69;4941753;28;98645;-58
2021/01/13 09:01:09;;;;;;;11.73;6.90;;;10.40;97.80;;;10.75;51.34;101273.63;4964364;28;101838;-57
2021/01/13 09:03:35;;;;;;;18.93;7.67;;;10.40;98.90;;;10.81;48.61;101278.75;4946105;28;99521;-58
2021/01/13 09:06:21;;;;;;;13.47;6.03;;;10.60;96.80;;;10.93;50.66;101267.84;4970507;28;98079;-57
2021/01/13 09:08:49;;;;;;;12.53;6.70;;;10.60;98.50;;;10.56;47.76;101268.00;4925444;28;98534;-58
2021/01/13 09:11:51;;;;;;;14.83;7.13;;;10.50;96.70;;;10.24;48.25;101271.41;4952234;28;96993;-58
2021/01/13 09:14:23;;;;;;;14.80;8.00;;;10.10;97.10;;;9.41;50.99;101277.69;4886431;28;103211;-57
2021/01/13 09:16:54;;;;;;;12.83;7.23;;;9.20;98.90;;;9.16;52.01;101272.03;4919691;28;97803;-55
2021/01/13 09:19:37;;;;;;;16.50;7.30;;;8.70;99.90;;;8.98;53.54;101275.03;4942182;28;97461;-57
2021/01/13 09:22:07;;;;;;;11.73;7.07;;;8.50;99.90;;;9.42;55.01;101270.66;4961285;28;103178;-57
2021/01/13 09:24:42;;;;;;;14.67;6.67;;;8.90;99.90;;;9.81;52.08;101272.38;4926441;28;98512;-57
2021/01/13 09:27:10;;;;;;;12.17;7.20;;;9.60;99.90;;;10.08;53.00;101275.28;4952845;28;97013;-57
2021/01/13 09:29:53;;;;;;;11.53;6.67;;;9.80;99.90;;;10.52;50.33;101270.72;4945558;28;97865;-58
2021/01/13 09:32:21;;;;;;;16.97;8.13;;;10.40;98.00;;;10.15;48.90;101261.06;4934218;28;99334;-58
2021/01/13 09:34:55;;;;;;;17.60;7.87;;;10.10;97.10;;;10.20;49.47;101266.22;4946279;28;97278;-58
2021/01/13 09:37:22;;;;;;;12.20;6.60;;;10.10;97.60;;;10.29;49.13;101261.63;4951954;28;97058;-59
2021/01/13 09:39:59;;;;;;;12.40;6.30;;;10.10;98.40;;;10.36;51.97;101265.84;4940694;28;97506;-57
2021/01/13 09:42:40;;;;;;;18.23;7.17;;;10.00;99.80;;;10.43;51.63;101262.16;4948102;28;97253;-58
2021/01/13 09:45:08;;;;;;;10.60;5.90;;;10.10;99.30;;;10.85;50.23;101264.59;4925350;28;101858;-57
2021/01/13 09:47:36;;;;;;;10.87;6.03;;;10.60;98.40;;;11.02;48.17;101270.25;4931152;28;97237;-58
2021/01/13 09:50:05;;;;;;;13.77;6.60;;;11.00;97.00;;;11.01;49.21;101271.16;4932679;28;98856;-58
2021/01/13 09:52:41;;;;;;;14.03;7.13;;;10.90;96.90;;;10.97;47.14;101269.50;4946404;28;100872;-58
2021/01/13 09:55:09;;;;;;;13.60;7.43;;;10.90;96.50;;;10.75;48.92;101278.91;4933718;28;97097;-58
2021/01/13 09:57:36;;;;;;;15.13;7.33;;;10.80;96.60;;;10.73;50.44;101280.72;4951684;28;98351;-58
2021/01/13 10:00:11;;;;;;;15.50;7.77;;;10.50;97.80;;;11.01;49.87;101276.44;4973379;28;97648;-57
2021/01/13 10:02:38;;;;;;;13.97;7.53;;;10.80;97.20;;;11.01;49.41;101271.16;4964808;28;100961;-58
2021/01/13 10:05:06;;;;;;;16.43;7.57;;;11.00;96.60;;;10.90;49.07;101262.66;4957896;28;97427;-58
2021/01/13 10:07:35;;;;;;;16.43;7.47;;;10.80;96.60;;;11.19;50.01;101274.19;4927601;28;97230;-57
2021/01/13 10:10:05;;;;;;;14.67;7.67;;;11.00;97.90;;;11.08;49.33;101261.28;4976344;28;96847;-58
2021/01/13 10:12:42;;;;;;;13.13;7.47;;;11.10;96.30;;;11.26;49.81;101259.88;4924623;28;98355;-58
2021/01/13 10:15:12;;;;;;;13.27;7.73;;;11.10;97.80;;;11.44;48.27;101259.38;4940028;28;99339;-58
2021/01/13 10:17:39;;;;;;;17.53;6.60;;;11.40;97.00;;;11.46;49.46;101262.84;4927968;28;98545;-57
2021/01/13 10:20:17;;;;;;;13.67;7.07;;;11.30;97.50;;;11.63;48.98;101264.97;4977658;28;97544;-58
2021/01/13 10:22:45;;;;;;;12.53;7.07;;;11.50;96.80;;;11.66;48.66;101264.00;4943218;28;100459;-56
2021/01/13 10:25:12;;;;;;;10.13;5.57;;;11.50;96.50;;;11.76;47.38;101266.31;4948083;28;98562;-57
2021/01/13 10:27:44;;;;;;;15.93;7.23;;;11.70;95.70;;;11.67;46.20;101265.72;4929911;28;102709;-57
2021/01/13 10:30:11;;;;;;;13.20;7.67;;;11.70;95.10;;;11.80;48.36;101256.53;4956014;28;98663;-58
2021/01/13 10:32:52;;;;;;;13.97;7.17;;;11.70;96.70;;;11.48;49.21;101258.38;4926804;28;98544;-56
2021/01/13 10:35:21;;;;;;;16.80;7.30;;;11.30;97.30;;;11.20;49.81;101246.88;4940728;28;97421;-57
2021/01/13 10:37:56;;;;;;;14.80;7.70;;;11.00;97.60;;;10.79;49.95;101264.72;4931283;28;103618;-57
2021/01/13 10:40:23;;;;;;;12.33;7.37;;;10.70;97.20;;;10.85;50.22;101259.31;4958237;28;97837;-58